sensor_id;sensor_type;location;lat;lon;timestamp;P1;durP1;ratioP1;P2;durP2;ratioP2
68944;SDS011;55984;48.790;8.990;2022-08-19T00:01:21;28.40;;;15.63;;
68944;SDS011;55984;48.790;8.990;2022-08-19T00:03:47;25.13;;;14.80;;
68944;SDS011;55984;48.790;8.990;2022-08-19T00:06:13;29.70;;;16.43;;
68944;SDS011;55984;48.790;8.990;2022-08-19T00:08:39;28.57;;;14.87;;
68944;SDS011;55984;48.790;8.990;2022-08-19T00:11:05;34.53;;;16.60;;
68944;SDS011;55984;48.790;8.990;2022-08-19T00:13:30;27.53;;;15.83;;
68944;SDS011;55984;48.790;8.990;2022-08-19T00:15:56;30.70;;;15.90;;
68944;SDS011;55984;48.790;8.990;2022-08-19T00:18:23;30.77;;;15.77;;
68944;SDS011;55984;48.790;8.990;2022-08-19T00:20:48;33.00;;;16.73;;
68944;SDS011;55984;48.790;8.990;2022-08-19T00:23:14;36.10;;;16.00;;
68944;SDS011;55984;48.790;8.990;2022-08-19T00:25:39;30.23;;;16.03;;
68944;SDS011;55984;48.790;8.990;2022-08-19T00:28:05;31.27;;;16.50;;
68944;SDS011;55984;48.790;8.990;2022-08-19T00:30:31;29.87;;;16.40;;
68944;SDS011;55984;48.790;8.990;2022-08-19T00:32:56;30.40;;;15.90;;
68944;SDS011;55984;48.790;8.990;2022-08-19T00:35:22;32.10;;;16.80;;
68944;SDS011;55984;48.790;8.990;2022-08-19T00:37:48;30.33;;;16.60;;
68944;SDS011;55984;48.790;8.990;2022-08-19T00:40:14;32.13;;;16.80;;
68944;SDS011;55984;48.790;8.990;2022-08-19T00:42:41;29.43;;;16.83;;
68944;SDS011;55984;48.790;8.990;2022-08-19T00:45:09;31.27;;;16.63;;
68944;SDS011;55984;48.790;8.990;2022-08-19T00:47:44;29.50;;;15.97;;
68944;SDS011;55984;48.790;8.990;2022-08-19T00:50:11;30.00;;;16.53;;
68944;SDS011;55984;48.790;8.990;2022-08-19T00:52:40;33.90;;;17.90;;
68944;SDS011;55984;48.790;8.990;2022-08-19T00:55:10;29.90;;;16.50;;
68944;SDS011;55984;48.790;8.990;2022-08-19T00:57:40;31.73;;;17.03;;
68944;SDS011;55984;48.790;8.990;2022-08-19T01:00:11;33.27;;;17.60;;
68944;SDS011;55984;48.790;8.990;2022-08-19T01:02:39;33.60;;;17.20;;
68944;SDS011;55984;48.790;8.990;2022-08-19T01:05:06;37.27;;;18.97;;
68944;SDS011;55984;48.790;8.990;2022-08-19T01:07:36;31.27;;;17.80;;
68944;SDS011;55984;48.790;8.990;2022-08-19T01:10:04;33.03;;;18.13;;
68944;SDS011;55984;48.790;8.990;2022-08-19T01:12:33;33.23;;;18.03;;
68944;SDS011;55984;48.790;8.990;2022-08-19T01:14:59;33.07;;;18.03;;
68944;SDS011;55984;48.790;8.990;2022-08-19T01:17:25;38.30;;;17.87;;
68944;SDS011;55984;48.790;8.990;2022-08-19T01:19:50;33.20;;;18.07;;
68944;SDS011;55984;48.790;8.990;2022-08-19T01:24:48;33.37;;;17.73;;
68944;SDS011;55984;48.790;8.990;2022-08-19T01:27:14;35.93;;;17.90;;
68944;SDS011;55984;48.790;8.990;2022-08-19T01:29:43;31.50;;;17.20;;
68944;SDS011;55984;48.790;8.990;2022-08-19T01:32:14;33.83;;;18.07;;
68944;SDS011;55984;48.790;8.990;2022-08-19T01:34:41;35.30;;;17.90;;
68944;SDS011;55984;48.790;8.990;2022-08-19T01:37:08;32.43;;;17.10;;
68944;SDS011;55984;48.790;8.990;2022-08-19T01:39:36;37.90;;;18.73;;
68944;SDS011;55984;48.790;8.990;2022-08-19T01:42:03;33.00;;;17.20;;
68944;SDS011;55984;48.790;8.990;2022-08-19T01:44:29;37.10;;;18.90;;
68944;SDS011;55984;48.790;8.990;2022-08-19T01:46:55;31.33;;;17.27;;
68944;SDS011;55984;48.790;8.990;2022-08-19T01:49:21;33.40;;;17.60;;
68944;SDS011;55984;48.790;8.990;2022-08-19T01:51:50;33.43;;;18.57;;
68944;SDS011;55984;48.790;8.990;2022-08-19T01:54:16;34.07;;;18.10;;
68944;SDS011;55984;48.790;8.990;2022-08-19T01:56:43;32.43;;;17.83;;
68944;SDS011;55984;48.790;8.990;2022-08-19T01:59:10;34.47;;;18.70;;
68944;SDS011;55984;48.790;8.990;2022-08-19T02:01:39;36.47;;;19.43;;
68944;SDS011;55984;48.790;8.990;2022-08-19T02:04:04;40.30;;;19.10;;
68944;SDS011;55984;48.790;8.990;2022-08-19T02:06:30;37.53;;;19.40;;
68944;SDS011;55984;48.790;8.990;2022-08-19T02:08:56;38.37;;;19.17;;
68944;SDS011;55984;48.790;8.990;2022-08-19T02:11:23;37.27;;;19.10;;
68944;SDS011;55984;48.790;8.990;2022-08-19T02:13:54;38.90;;;19.60;;
68944;SDS011;55984;48.790;8.990;2022-08-19T02:16:20;38.57;;;20.40;;
68944;SDS011;55984;48.790;8.990;2022-08-19T02:18:46;36.73;;;20.43;;
68944;SDS011;55984;48.790;8.990;2022-08-19T02:21:19;40.47;;;19.77;;
68944;SDS011;55984;48.790;8.990;2022-08-19T02:23:47;37.83;;;20.47;;
68944;SDS011;55984;48.790;8.990;2022-08-19T02:26:13;34.50;;;19.37;;
68944;SDS011;55984;48.790;8.990;2022-08-19T02:28:40;38.60;;;20.27;;
68944;SDS011;55984;48.790;8.990;2022-08-19T02:31:10;39.27;;;20.57;;
68944;SDS011;55984;48.790;8.990;2022-08-19T02:33:37;37.70;;;19.90;;
68944;SDS011;55984;48.790;8.990;2022-08-19T02:36:04;39.77;;;21.10;;
68944;SDS011;55984;48.790;8.990;2022-08-19T02:38:31;37.30;;;20.07;;
68944;SDS011;55984;48.790;8.990;2022-08-19T02:40:58;42.87;;;21.17;;
68944;SDS011;55984;48.790;8.990;2022-08-19T02:43:26;42.10;;;22.20;;
68944;SDS011;55984;48.790;8.990;2022-08-19T02:45:53;40.17;;;21.50;;
68944;SDS011;55984;48.790;8.990;2022-08-19T02:48:20;41.37;;;21.90;;
68944;SDS011;55984;48.790;8.990;2022-08-19T02:50:46;43.23;;;22.13;;
68944;SDS011;55984;48.790;8.990;2022-08-19T02:53:15;38.97;;;20.37;;
68944;SDS011;55984;48.790;8.990;2022-08-19T02:55:44;43.53;;;21.90;;
68944;SDS011;55984;48.790;8.990;2022-08-19T02:58:11;41.90;;;21.47;;
68944;SDS011;55984;48.790;8.990;2022-08-19T03:00:41;38.90;;;21.93;;
68944;SDS011;55984;48.790;8.990;2022-08-19T03:03:08;40.87;;;22.77;;
68944;SDS011;55984;48.790;8.990;2022-08-19T03:05:34;44.17;;;22.00;;
68944;SDS011;55984;48.790;8.990;2022-08-19T03:07:59;43.50;;;23.10;;
68944;SDS011;55984;48.790;8.990;2022-08-19T03:10:24;42.10;;;22.10;;
68944;SDS011;55984;48.790;8.990;2022-08-19T03:12:50;40.47;;;21.37;;
68944;SDS011;55984;48.790;8.990;2022-08-19T03:15:15;42.10;;;23.40;;
68944;SDS011;55984;48.790;8.990;2022-08-19T03:17:40;44.97;;;23.27;;
68944;SDS011;55984;48.790;8.990;2022-08-19T03:20:06;46.47;;;23.00;;
68944;SDS011;55984;48.790;8.990;2022-08-19T03:22:31;48.63;;;24.70;;
68944;SDS011;55984;48.790;8.990;2022-08-19T03:24:57;43.90;;;23.70;;
68944;SDS011;55984;48.790;8.990;2022-08-19T03:27:24;45.07;;;23.13;;
68944;SDS011;55984;48.790;8.990;2022-08-19T03:29:49;43.50;;;22.60;;
68944;SDS011;55984;48.790;8.990;2022-08-19T03:32:15;46.03;;;24.50;;
68944;SDS011;55984;48.790;8.990;2022-08-19T03:34:40;47.93;;;25.40;;
68944;SDS011;55984;48.790;8.990;2022-08-19T03:37:07;47.43;;;24.17;;
68944;SDS011;55984;48.790;8.990;2022-08-19T03:39:36;46.20;;;24.03;;
68944;SDS011;55984;48.790;8.990;2022-08-19T03:42:03;44.20;;;24.57;;
68944;SDS011;55984;48.790;8.990;2022-08-19T03:44:30;47.17;;;24.57;;
68944;SDS011;55984;48.790;8.990;2022-08-19T03:46:58;48.33;;;24.90;;
68944;SDS011;55984;48.790;8.990;2022-08-19T03:49:29;50.47;;;24.87;;
68944;SDS011;55984;48.790;8.990;2022-08-19T03:51:57;44.10;;;23.93;;
68944;SDS011;55984;48.790;8.990;2022-08-19T03:54:26;47.33;;;25.30;;
68944;SDS011;55984;48.790;8.990;2022-08-19T03:56:53;49.07;;;24.97;;
68944;SDS011;55984;48.790;8.990;2022-08-19T03:59:22;49.73;;;26.80;;
68944;SDS011;55984;48.790;8.990;2022-08-19T04:01:51;52.50;;;25.20;;
68944;SDS011;55984;48.790;8.990;2022-08-19T04:04:17;50.10;;;25.83;;
68944;SDS011;55984;48.790;8.990;2022-08-19T04:06:43;48.20;;;25.40;;
68944;SDS011;55984;48.790;8.990;2022-08-19T04:09:09;52.17;;;26.30;;
68944;SDS011;55984;48.790;8.990;2022-08-19T04:11:37;47.90;;;25.33;;
68944;SDS011;55984;48.790;8.990;2022-08-19T04:14:09;48.00;;;25.10;;
68944;SDS011;55984;48.790;8.990;2022-08-19T04:16:36;44.63;;;24.00;;
68944;SDS011;55984;48.790;8.990;2022-08-19T04:19:02;53.43;;;26.00;;
68944;SDS011;55984;48.790;8.990;2022-08-19T04:21:28;51.07;;;25.17;;
68944;SDS011;55984;48.790;8.990;2022-08-19T04:23:55;48.93;;;25.40;;
68944;SDS011;55984;48.790;8.990;2022-08-19T04:26:25;52.00;;;25.70;;
68944;SDS011;55984;48.790;8.990;2022-08-19T04:28:56;46.20;;;24.50;;
68944;SDS011;55984;48.790;8.990;2022-08-19T04:31:23;49.93;;;25.17;;
68944;SDS011;55984;48.790;8.990;2022-08-19T04:33:51;51.37;;;26.70;;
68944;SDS011;55984;48.790;8.990;2022-08-19T04:36:19;56.47;;;27.73;;
68944;SDS011;55984;48.790;8.990;2022-08-19T04:38:47;51.30;;;26.33;;
68944;SDS011;55984;48.790;8.990;2022-08-19T04:41:15;54.33;;;26.90;;
68944;SDS011;55984;48.790;8.990;2022-08-19T04:43:59;51.90;;;27.83;;
68944;SDS011;55984;48.790;8.990;2022-08-19T04:46:25;53.30;;;26.70;;
68944;SDS011;55984;48.790;8.990;2022-08-19T04:48:50;54.77;;;26.00;;
68944;SDS011;55984;48.790;8.990;2022-08-19T04:51:16;45.43;;;25.40;;
68944;SDS011;55984;48.790;8.990;2022-08-19T04:53:42;47.93;;;26.60;;
68944;SDS011;55984;48.790;8.990;2022-08-19T04:56:11;48.70;;;25.03;;
68944;SDS011;55984;48.790;8.990;2022-08-19T04:58:39;50.37;;;26.20;;
68944;SDS011;55984;48.790;8.990;2022-08-19T05:01:07;49.20;;;26.77;;
68944;SDS011;55984;48.790;8.990;2022-08-19T05:03:37;56.63;;;25.87;;
68944;SDS011;55984;48.790;8.990;2022-08-19T05:06:06;44.57;;;24.30;;
68944;SDS011;55984;48.790;8.990;2022-08-19T05:08:34;50.47;;;25.10;;
68944;SDS011;55984;48.790;8.990;2022-08-19T05:11:01;52.50;;;26.13;;
68944;SDS011;55984;48.790;8.990;2022-08-19T05:13:34;47.30;;;25.30;;
68944;SDS011;55984;48.790;8.990;2022-08-19T05:15:59;49.63;;;26.33;;
68944;SDS011;55984;48.790;8.990;2022-08-19T05:18:25;43.90;;;24.60;;
68944;SDS011;55984;48.790;8.990;2022-08-19T05:21:11;45.97;;;25.37;;
68944;SDS011;55984;48.790;8.990;2022-08-19T05:23:57;46.63;;;24.30;;
68944;SDS011;55984;48.790;8.990;2022-08-19T05:26:23;46.57;;;25.07;;
68944;SDS011;55984;48.790;8.990;2022-08-19T05:28:50;49.43;;;24.30;;
68944;SDS011;55984;48.790;8.990;2022-08-19T05:31:16;47.40;;;24.73;;
68944;SDS011;55984;48.790;8.990;2022-08-19T05:33:42;49.40;;;26.03;;
68944;SDS011;55984;48.790;8.990;2022-08-19T05:36:07;46.33;;;24.60;;
68944;SDS011;55984;48.790;8.990;2022-08-19T05:38:33;44.03;;;22.10;;
68944;SDS011;55984;48.790;8.990;2022-08-19T05:41:00;48.60;;;24.97;;
68944;SDS011;55984;48.790;8.990;2022-08-19T05:43:31;43.77;;;24.27;;
68944;SDS011;55984;48.790;8.990;2022-08-19T05:45:56;47.03;;;24.70;;
68944;SDS011;55984;48.790;8.990;2022-08-19T05:48:21;43.53;;;23.97;;
68944;SDS011;55984;48.790;8.990;2022-08-19T05:50:47;47.97;;;24.57;;
68944;SDS011;55984;48.790;8.990;2022-08-19T05:53:15;48.73;;;24.33;;
68944;SDS011;55984;48.790;8.990;2022-08-19T05:55:41;47.67;;;23.60;;
68944;SDS011;55984;48.790;8.990;2022-08-19T05:58:07;46.37;;;24.53;;
68944;SDS011;55984;48.790;8.990;2022-08-19T06:00:33;50.10;;;26.40;;
68944;SDS011;55984;48.790;8.990;2022-08-19T06:02:59;44.47;;;23.60;;
68944;SDS011;55984;48.790;8.990;2022-08-19T06:05:28;45.00;;;23.93;;
68944;SDS011;55984;48.790;8.990;2022-08-19T06:07:54;47.43;;;24.70;;
68944;SDS011;55984;48.790;8.990;2022-08-19T06:10:20;50.23;;;26.00;;
68944;SDS011;55984;48.790;8.990;2022-08-19T06:12:46;45.53;;;23.73;;
68944;SDS011;55984;48.790;8.990;2022-08-19T06:15:13;47.97;;;24.63;;
68944;SDS011;55984;48.790;8.990;2022-08-19T06:17:39;48.30;;;25.63;;
68944;SDS011;55984;48.790;8.990;2022-08-19T06:20:05;44.90;;;24.37;;
68944;SDS011;55984;48.790;8.990;2022-08-19T06:22:44;48.27;;;25.33;;
68944;SDS011;55984;48.790;8.990;2022-08-19T06:25:12;43.70;;;23.33;;
68944;SDS011;55984;48.790;8.990;2022-08-19T06:27:39;44.53;;;23.50;;
68944;SDS011;55984;48.790;8.990;2022-08-19T06:30:05;40.63;;;23.53;;
68944;SDS011;55984;48.790;8.990;2022-08-19T06:32:31;43.07;;;23.20;;
68944;SDS011;55984;48.790;8.990;2022-08-19T06:34:57;47.23;;;23.60;;
68944;SDS011;55984;48.790;8.990;2022-08-19T06:37:23;41.80;;;22.63;;
68944;SDS011;55984;48.790;8.990;2022-08-19T06:39:48;41.57;;;22.80;;
68944;SDS011;55984;48.790;8.990;2022-08-19T06:42:14;43.03;;;22.37;;
68944;SDS011;55984;48.790;8.990;2022-08-19T06:44:43;41.63;;;23.20;;
68944;SDS011;55984;48.790;8.990;2022-08-19T06:47:12;40.50;;;23.80;;
68944;SDS011;55984;48.790;8.990;2022-08-19T06:49:39;39.73;;;22.57;;
68944;SDS011;55984;48.790;8.990;2022-08-19T06:52:04;44.80;;;22.60;;
68944;SDS011;55984;48.790;8.990;2022-08-19T06:54:30;39.23;;;21.77;;
68944;SDS011;55984;48.790;8.990;2022-08-19T06:56:57;45.33;;;21.20;;
68944;SDS011;55984;48.790;8.990;2022-08-19T06:59:24;39.83;;;21.80;;
68944;SDS011;55984;48.790;8.990;2022-08-19T07:01:53;39.53;;;21.00;;
68944;SDS011;55984;48.790;8.990;2022-08-19T07:04:25;43.30;;;21.33;;
68944;SDS011;55984;48.790;8.990;2022-08-19T07:06:57;36.93;;;21.03;;
68944;SDS011;55984;48.790;8.990;2022-08-19T07:09:24;33.57;;;19.47;;
68944;SDS011;55984;48.790;8.990;2022-08-19T07:11:51;45.53;;;20.27;;
68944;SDS011;55984;48.790;8.990;2022-08-19T07:14:18;36.83;;;19.53;;
68944;SDS011;55984;48.790;8.990;2022-08-19T07:16:46;33.80;;;19.40;;
68944;SDS011;55984;48.790;8.990;2022-08-19T07:19:14;32.97;;;19.43;;
68944;SDS011;55984;48.790;8.990;2022-08-19T07:21:41;41.07;;;20.10;;
68944;SDS011;55984;48.790;8.990;2022-08-19T07:24:07;34.47;;;19.40;;
68944;SDS011;55984;48.790;8.990;2022-08-19T07:26:33;33.80;;;19.33;;
68944;SDS011;55984;48.790;8.990;2022-08-19T07:29:04;39.20;;;20.13;;
68944;SDS011;55984;48.790;8.990;2022-08-19T07:31:30;37.37;;;19.97;;
68944;SDS011;55984;48.790;8.990;2022-08-19T07:33:56;36.80;;;19.30;;
68944;SDS011;55984;48.790;8.990;2022-08-19T07:36:26;37.20;;;20.70;;
68944;SDS011;55984;48.790;8.990;2022-08-19T07:38:57;38.47;;;19.87;;
68944;SDS011;55984;48.790;8.990;2022-08-19T07:41:25;38.40;;;20.47;;
68944;SDS011;55984;48.790;8.990;2022-08-19T07:43:53;32.40;;;19.20;;
68944;SDS011;55984;48.790;8.990;2022-08-19T07:46:19;37.00;;;19.67;;
68944;SDS011;55984;48.790;8.990;2022-08-19T07:48:48;34.33;;;18.50;;
68944;SDS011;55984;48.790;8.990;2022-08-19T07:51:19;36.10;;;18.53;;
68944;SDS011;55984;48.790;8.990;2022-08-19T07:53:46;42.73;;;19.97;;
68944;SDS011;55984;48.790;8.990;2022-08-19T07:56:12;33.10;;;18.47;;
68944;SDS011;55984;48.790;8.990;2022-08-19T07:58:41;33.30;;;19.23;;
68944;SDS011;55984;48.790;8.990;2022-08-19T08:01:14;31.90;;;17.80;;
68944;SDS011;55984;48.790;8.990;2022-08-19T08:03:45;33.30;;;18.80;;
68944;SDS011;55984;48.790;8.990;2022-08-19T08:06:29;37.33;;;19.90;;
68944;SDS011;55984;48.790;8.990;2022-08-19T08:09:13;31.83;;;18.67;;
68944;SDS011;55984;48.790;8.990;2022-08-19T08:11:50;33.70;;;19.20;;
68944;SDS011;55984;48.790;8.990;2022-08-19T08:14:19;31.20;;;18.33;;
68944;SDS011;55984;48.790;8.990;2022-08-19T08:16:47;34.13;;;19.23;;
68944;SDS011;55984;48.790;8.990;2022-08-19T08:19:18;31.67;;;18.60;;
68944;SDS011;55984;48.790;8.990;2022-08-19T08:21:49;34.10;;;19.00;;
68944;SDS011;55984;48.790;8.990;2022-08-19T08:24:18;31.60;;;18.60;;
68944;SDS011;55984;48.790;8.990;2022-08-19T08:26:45;35.03;;;19.50;;
68944;SDS011;55984;48.790;8.990;2022-08-19T08:29:12;31.80;;;19.03;;
68944;SDS011;55984;48.790;8.990;2022-08-19T08:31:41;30.23;;;18.30;;
68944;SDS011;55984;48.790;8.990;2022-08-19T08:34:08;31.13;;;18.10;;
68944;SDS011;55984;48.790;8.990;2022-08-19T08:36:45;31.73;;;18.37;;
68944;SDS011;55984;48.790;8.990;2022-08-19T08:39:12;33.17;;;19.00;;
68944;SDS011;55984;48.790;8.990;2022-08-19T08:44:23;32.47;;;17.87;;
68944;SDS011;55984;48.790;8.990;2022-08-19T08:47:00;27.50;;;17.07;;
68944;SDS011;55984;48.790;8.990;2022-08-19T08:55:16;35.93;;;18.13;;
68944;SDS011;55984;48.790;8.990;2022-08-19T08:59:01;29.47;;;17.53;;
68944;SDS011;55984;48.790;8.990;2022-08-19T09:04:20;31.27;;;17.30;;
68944;SDS011;55984;48.790;8.990;2022-08-19T09:09:47;33.57;;;17.90;;
68944;SDS011;55984;48.790;8.990;2022-08-19T09:15:10;29.97;;;18.20;;
68944;SDS011;55984;48.790;8.990;2022-08-19T09:17:39;31.10;;;17.80;;
68944;SDS011;55984;48.790;8.990;2022-08-19T09:22:43;29.00;;;17.63;;
68944;SDS011;55984;48.790;8.990;2022-08-19T09:25:12;25.77;;;17.03;;
68944;SDS011;55984;48.790;8.990;2022-08-19T09:27:43;27.60;;;16.73;;
68944;SDS011;55984;48.790;8.990;2022-08-19T09:30:11;29.70;;;17.40;;
68944;SDS011;55984;48.790;8.990;2022-08-19T09:32:41;32.07;;;18.57;;
68944;SDS011;55984;48.790;8.990;2022-08-19T09:35:08;26.63;;;16.80;;
68944;SDS011;55984;48.790;8.990;2022-08-19T09:37:34;30.27;;;16.30;;
68944;SDS011;55984;48.790;8.990;2022-08-19T09:40:00;33.23;;;16.90;;
68944;SDS011;55984;48.790;8.990;2022-08-19T09:42:31;27.30;;;16.37;;
68944;SDS011;55984;48.790;8.990;2022-08-19T09:44:57;26.53;;;16.00;;
68944;SDS011;55984;48.790;8.990;2022-08-19T09:47:25;28.27;;;15.60;;
68944;SDS011;55984;48.790;8.990;2022-08-19T09:49:52;26.27;;;15.87;;
68944;SDS011;55984;48.790;8.990;2022-08-19T09:52:20;26.80;;;16.47;;
68944;SDS011;55984;48.790;8.990;2022-08-19T09:54:46;25.67;;;15.87;;
68944;SDS011;55984;48.790;8.990;2022-08-19T09:57:12;26.10;;;16.17;;
68944;SDS011;55984;48.790;8.990;2022-08-19T09:59:38;23.63;;;15.27;;
68944;SDS011;55984;48.790;8.990;2022-08-19T10:02:07;26.97;;;15.67;;
68944;SDS011;55984;48.790;8.990;2022-08-19T10:07:41;23.37;;;14.13;;
68944;SDS011;55984;48.790;8.990;2022-08-19T10:10:07;24.40;;;14.60;;
68944;SDS011;55984;48.790;8.990;2022-08-19T10:12:34;24.00;;;15.10;;
68944;SDS011;55984;48.790;8.990;2022-08-19T10:15:02;21.87;;;14.27;;
68944;SDS011;55984;48.790;8.990;2022-08-19T10:17:29;22.87;;;14.30;;
68944;SDS011;55984;48.790;8.990;2022-08-19T10:19:54;24.70;;;12.90;;
68944;SDS011;55984;48.790;8.990;2022-08-19T10:22:20;23.40;;;14.23;;
68944;SDS011;55984;48.790;8.990;2022-08-19T10:24:46;22.67;;;14.07;;
68944;SDS011;55984;48.790;8.990;2022-08-19T10:27:42;23.23;;;13.77;;
68944;SDS011;55984;48.790;8.990;2022-08-19T10:30:08;17.97;;;12.07;;
68944;SDS011;55984;48.790;8.990;2022-08-19T10:32:34;20.93;;;12.87;;
68944;SDS011;55984;48.790;8.990;2022-08-19T10:35:00;20.73;;;12.33;;
68944;SDS011;55984;48.790;8.990;2022-08-19T10:37:30;23.10;;;12.67;;
68944;SDS011;55984;48.790;8.990;2022-08-19T10:39:56;19.97;;;12.00;;
68944;SDS011;55984;48.790;8.990;2022-08-19T10:42:21;21.83;;;11.70;;
68944;SDS011;55984;48.790;8.990;2022-08-19T10:44:47;15.67;;;10.93;;
68944;SDS011;55984;48.790;8.990;2022-08-19T10:47:12;18.00;;;11.67;;
68944;SDS011;55984;48.790;8.990;2022-08-19T10:49:38;19.43;;;11.40;;
68944;SDS011;55984;48.790;8.990;2022-08-19T10:52:27;17.70;;;11.33;;
68944;SDS011;55984;48.790;8.990;2022-08-19T10:54:58;19.60;;;12.17;;
68944;SDS011;55984;48.790;8.990;2022-08-19T10:57:43;17.13;;;11.00;;
68944;SDS011;55984;48.790;8.990;2022-08-19T11:00:09;19.53;;;11.80;;
68944;SDS011;55984;48.790;8.990;2022-08-19T11:02:35;19.47;;;11.93;;
68944;SDS011;55984;48.790;8.990;2022-08-19T11:07:36;15.90;;;11.57;;
68944;SDS011;55984;48.790;8.990;2022-08-19T11:10:04;18.60;;;11.30;;
68944;SDS011;55984;48.790;8.990;2022-08-19T11:12:38;16.37;;;11.33;;
68944;SDS011;55984;48.790;8.990;2022-08-19T11:15:07;16.67;;;12.00;;
68944;SDS011;55984;48.790;8.990;2022-08-19T11:17:38;18.20;;;12.13;;
68944;SDS011;55984;48.790;8.990;2022-08-19T11:20:09;21.27;;;11.47;;
68944;SDS011;55984;48.790;8.990;2022-08-19T11:22:39;15.27;;;10.83;;
68944;SDS011;55984;48.790;8.990;2022-08-19T11:25:13;15.23;;;10.13;;
68944;SDS011;55984;48.790;8.990;2022-08-19T11:27:53;13.77;;;9.70;;
68944;SDS011;55984;48.790;8.990;2022-08-19T11:30:18;13.80;;;9.50;;
68944;SDS011;55984;48.790;8.990;2022-08-19T11:32:44;15.80;;;9.20;;
68944;SDS011;55984;48.790;8.990;2022-08-19T11:35:09;15.87;;;9.50;;
68944;SDS011;55984;48.790;8.990;2022-08-19T11:37:36;15.83;;;9.27;;
68944;SDS011;55984;48.790;8.990;2022-08-19T11:40:03;15.20;;;9.30;;
68944;SDS011;55984;48.790;8.990;2022-08-19T11:42:29;15.93;;;9.73;;
68944;SDS011;55984;48.790;8.990;2022-08-19T11:45:13;13.63;;;9.10;;
68944;SDS011;55984;48.790;8.990;2022-08-19T11:47:39;14.33;;;9.67;;
68944;SDS011;55984;48.790;8.990;2022-08-19T11:50:05;15.73;;;9.50;;
68944;SDS011;55984;48.790;8.990;2022-08-19T11:52:30;16.00;;;9.53;;
68944;SDS011;55984;48.790;8.990;2022-08-19T11:54:56;12.87;;;9.63;;
68944;SDS011;55984;48.790;8.990;2022-08-19T11:57:21;12.20;;;8.60;;
68944;SDS011;55984;48.790;8.990;2022-08-19T11:59:48;12.70;;;8.70;;
68944;SDS011;55984;48.790;8.990;2022-08-19T12:02:17;13.20;;;7.80;;
68944;SDS011;55984;48.790;8.990;2022-08-19T12:04:45;10.83;;;8.27;;
68944;SDS011;55984;48.790;8.990;2022-08-19T12:07:10;11.93;;;7.77;;
68944;SDS011;55984;48.790;8.990;2022-08-19T12:09:35;11.10;;;8.30;;
68944;SDS011;55984;48.790;8.990;2022-08-19T12:12:01;11.47;;;8.40;;
68944;SDS011;55984;48.790;8.990;2022-08-19T12:14:27;10.70;;;8.50;;
68944;SDS011;55984;48.790;8.990;2022-08-19T12:16:55;12.47;;;9.07;;
68944;SDS011;55984;48.790;8.990;2022-08-19T12:19:20;11.60;;;8.80;;
68944;SDS011;55984;48.790;8.990;2022-08-19T12:21:47;18.33;;;8.50;;
68944;SDS011;55984;48.790;8.990;2022-08-19T12:24:13;12.03;;;8.70;;
68944;SDS011;55984;48.790;8.990;2022-08-19T12:26:39;14.70;;;8.57;;
68944;SDS011;55984;48.790;8.990;2022-08-19T12:29:05;10.87;;;8.03;;
68944;SDS011;55984;48.790;8.990;2022-08-19T12:31:33;12.70;;;8.70;;
68944;SDS011;55984;48.790;8.990;2022-08-19T12:33:59;11.60;;;8.30;;
68944;SDS011;55984;48.790;8.990;2022-08-19T12:36:25;10.43;;;8.07;;
68944;SDS011;55984;48.790;8.990;2022-08-19T12:38:51;13.33;;;9.50;;
68944;SDS011;55984;48.790;8.990;2022-08-19T12:41:18;10.57;;;8.60;;
68944;SDS011;55984;48.790;8.990;2022-08-19T12:43:48;11.67;;;8.63;;
68944;SDS011;55984;48.790;8.990;2022-08-19T12:46:14;12.17;;;9.20;;
68944;SDS011;55984;48.790;8.990;2022-08-19T12:48:41;14.60;;;9.10;;
68944;SDS011;55984;48.790;8.990;2022-08-19T12:51:11;12.10;;;9.07;;
68944;SDS011;55984;48.790;8.990;2022-08-19T12:53:39;11.20;;;9.00;;
68944;SDS011;55984;48.790;8.990;2022-08-19T12:56:06;10.90;;;9.27;;
68944;SDS011;55984;48.790;8.990;2022-08-19T12:58:32;11.50;;;8.73;;
68944;SDS011;55984;48.790;8.990;2022-08-19T13:00:59;13.43;;;9.30;;
68944;SDS011;55984;48.790;8.990;2022-08-19T13:03:30;12.50;;;9.73;;
68944;SDS011;55984;48.790;8.990;2022-08-19T13:05:56;13.53;;;9.20;;
68944;SDS011;55984;48.790;8.990;2022-08-19T13:08:21;13.23;;;9.40;;
68944;SDS011;55984;48.790;8.990;2022-08-19T13:10:47;11.10;;;9.23;;
68944;SDS011;55984;48.790;8.990;2022-08-19T13:13:12;11.17;;;9.07;;
68944;SDS011;55984;48.790;8.990;2022-08-19T13:15:39;11.00;;;9.00;;
68944;SDS011;55984;48.790;8.990;2022-08-19T13:18:08;10.67;;;9.30;;
68944;SDS011;55984;48.790;8.990;2022-08-19T13:20:35;12.87;;;9.50;;
68944;SDS011;55984;48.790;8.990;2022-08-19T13:23:02;10.90;;;8.93;;
68944;SDS011;55984;48.790;8.990;2022-08-19T13:25:29;14.57;;;9.20;;
68944;SDS011;55984;48.790;8.990;2022-08-19T13:27:54;14.83;;;9.67;;
68944;SDS011;55984;48.790;8.990;2022-08-19T13:30:20;14.43;;;8.80;;
68944;SDS011;55984;48.790;8.990;2022-08-19T13:33:05;13.07;;;9.20;;
68944;SDS011;55984;48.790;8.990;2022-08-19T19:47:41;11.17;;;6.97;;
68944;SDS011;55984;48.790;8.990;2022-08-19T19:50:14;9.87;;;6.87;;
68944;SDS011;55984;48.790;8.990;2022-08-19T19:52:42;10.33;;;6.90;;
68944;SDS011;55984;48.790;8.990;2022-08-19T19:55:09;9.70;;;6.30;;
68944;SDS011;55984;48.790;8.990;2022-08-19T19:57:42;8.53;;;6.07;;
68944;SDS011;55984;48.790;8.990;2022-08-19T20:00:11;10.23;;;6.60;;
68944;SDS011;55984;48.790;8.990;2022-08-19T20:02:40;13.60;;;7.07;;
68944;SDS011;55984;48.790;8.990;2022-08-19T20:05:07;8.90;;;6.20;;
68944;SDS011;55984;48.790;8.990;2022-08-19T20:07:34;8.80;;;6.30;;
68944;SDS011;55984;48.790;8.990;2022-08-19T20:10:18;8.70;;;6.27;;
68944;SDS011;55984;48.790;8.990;2022-08-19T20:12:43;10.50;;;5.90;;
68944;SDS011;55984;48.790;8.990;2022-08-19T20:15:09;9.90;;;6.40;;
68944;SDS011;55984;48.790;8.990;2022-08-19T20:17:39;9.00;;;5.90;;
68944;SDS011;55984;48.790;8.990;2022-08-19T20:20:08;7.67;;;6.13;;
68944;SDS011;55984;48.790;8.990;2022-08-19T20:22:38;8.50;;;5.83;;
68944;SDS011;55984;48.790;8.990;2022-08-19T20:25:05;9.80;;;6.40;;
68944;SDS011;55984;48.790;8.990;2022-08-19T20:27:32;7.47;;;5.30;;
68944;SDS011;55984;48.790;8.990;2022-08-19T20:29:58;9.57;;;5.87;;
68944;SDS011;55984;48.790;8.990;2022-08-19T20:32:24;7.70;;;5.40;;
68944;SDS011;55984;48.790;8.990;2022-08-19T20:34:53;8.07;;;5.30;;
68944;SDS011;55984;48.790;8.990;2022-08-19T20:37:18;7.60;;;5.13;;
68944;SDS011;55984;48.790;8.990;2022-08-19T20:39:43;10.40;;;4.87;;
68944;SDS011;55984;48.790;8.990;2022-08-19T20:42:09;6.83;;;5.10;;
68944;SDS011;55984;48.790;8.990;2022-08-19T20:44:34;5.97;;;4.57;;
68944;SDS011;55984;48.790;8.990;2022-08-19T20:46:59;6.60;;;4.57;;
68944;SDS011;55984;48.790;8.990;2022-08-19T20:49:26;6.50;;;4.60;;
68944;SDS011;55984;48.790;8.990;2022-08-19T20:51:51;6.57;;;4.70;;
68944;SDS011;55984;48.790;8.990;2022-08-19T20:54:17;5.83;;;4.23;;
68944;SDS011;55984;48.790;8.990;2022-08-19T20:56:44;5.60;;;4.63;;
68944;SDS011;55984;48.790;8.990;2022-08-19T20:59:09;5.70;;;4.00;;
68944;SDS011;55984;48.790;8.990;2022-08-19T21:01:35;5.57;;;4.13;;
68944;SDS011;55984;48.790;8.990;2022-08-19T21:04:01;5.60;;;3.90;;
68944;SDS011;55984;48.790;8.990;2022-08-19T21:06:27;4.77;;;3.70;;
68944;SDS011;55984;48.790;8.990;2022-08-19T21:08:52;5.43;;;3.90;;
68944;SDS011;55984;48.790;8.990;2022-08-19T21:11:18;4.87;;;3.90;;